Terminal Aerodrome Forecast
Issued by NWS

Current Version | Previous Version | Text Only | Print | Product List | Glossary Off
Versions: 1 2 3 4 5 6 7 8 9 10 11 12 13 14 15 16 17

000
FTUS41 KILN 171417 AAA
TAFLCK
TAF AMD
KLCK 171417Z 1714/1812 25004KT P6SM -SN OVC012
      TEMPO 1714/1716 1SM -SN BR OVC012
     FM171700 26007KT P6SM FEW015 SCT050
     FM172300 24007KT P6SM BKN120
     FM180200 22006KT P6SM SCT150 BKN200
     FM180900 22008KT P6SM SKC=

USA.gov is the U.S. government's official web portal to all federal, state and local government web resources and services.